createdAt,value
2023-04-21T00:01:55.141Z,198.77
2023-04-21T00:04:23.740Z,180.03
2023-04-21T00:06:53.078Z,181.70
2023-04-21T00:09:22.260Z,192.07
2023-04-21T00:11:49.924Z,186.53
2023-04-21T00:14:17.763Z,193.13
2023-04-21T00:16:45.710Z,187.00
2023-04-21T00:19:13.722Z,176.20
2023-04-21T00:21:41.674Z,194.10
2023-04-21T00:24:09.744Z,202.23
2023-04-21T00:26:38.926Z,181.67
2023-04-21T00:29:06.728Z,178.33
2023-04-21T00:31:34.498Z,172.80
2023-04-21T00:34:02.190Z,195.13
2023-04-21T00:36:29.830Z,190.70
2023-04-21T00:38:57.470Z,193.17
2023-04-21T00:41:25.107Z,185.70
2023-04-21T00:44:04.588Z,190.83
2023-04-21T00:46:32.777Z,186.07
2023-04-21T00:49:01.482Z,169.73
2023-04-21T00:51:29.963Z,177.30
2023-04-21T00:53:57.656Z,197.80
2023-04-21T00:56:27.030Z,194.27
2023-04-21T00:58:56.089Z,185.00
2023-04-21T01:01:25.070Z,183.63
2023-04-21T01:03:53.033Z,183.17
2023-04-21T01:06:21.099Z,182.33
2023-04-21T01:08:49.560Z,180.30
2023-04-21T01:11:17.283Z,186.50
2023-04-21T01:13:44.898Z,192.57
2023-04-21T01:16:17.497Z,182.10
2023-04-21T01:18:46.889Z,191.07
2023-04-21T01:21:14.704Z,176.83
2023-04-21T01:23:44.295Z,184.07
2023-04-21T01:26:12.528Z,179.83
2023-04-21T01:28:40.202Z,184.90
2023-04-21T01:31:07.838Z,191.80
2023-04-21T01:33:35.545Z,183.33
2023-04-21T01:36:03.356Z,192.50
2023-04-21T01:38:31.067Z,190.83
2023-04-21T01:41:01.465Z,201.10
2023-04-21T01:43:29.149Z,193.27
2023-04-21T01:45:57.845Z,202.27
2023-04-21T01:48:25.644Z,198.20
2023-04-21T01:50:53.296Z,203.03
2023-04-21T01:53:20.959Z,207.07
2023-04-21T01:55:48.633Z,214.13
2023-04-21T01:58:17.700Z,198.57
2023-04-21T02:00:45.752Z,213.20
2023-04-21T02:03:13.503Z,202.63
2023-04-21T02:05:41.359Z,189.40
2023-04-21T02:08:09.425Z,203.60
2023-04-21T02:10:37.126Z,206.00
2023-04-21T02:13:04.790Z,211.07
2023-04-21T02:15:33.834Z,205.00
2023-04-21T02:18:01.720Z,195.10
2023-04-21T02:20:29.541Z,204.50
2023-04-21T02:22:57.171Z,220.50
2023-04-21T02:25:25.542Z,203.60
2023-04-21T02:27:53.216Z,200.37
2023-04-21T02:30:21.107Z,206.27
2023-04-21T02:32:50.335Z,212.47
2023-04-21T02:35:18.072Z,160.57
2023-04-21T02:37:45.794Z,158.47
2023-04-21T02:40:13.895Z,165.67
2023-04-21T02:42:41.577Z,172.93
2023-04-21T02:45:12.113Z,182.20
2023-04-21T02:47:39.835Z,168.40
2023-04-21T02:50:09.712Z,171.00
2023-04-21T02:52:38.211Z,157.93
2023-04-21T02:55:06.559Z,166.80
2023-04-21T02:57:34.225Z,161.57
2023-04-21T03:00:01.924Z,169.37
2023-04-21T03:02:29.922Z,177.40
2023-04-21T03:04:58.007Z,166.00
2023-04-21T03:07:26.959Z,175.10
2023-04-21T03:09:54.660Z,169.90
2023-04-21T03:12:22.347Z,177.20
2023-04-21T03:14:50.126Z,177.37
2023-04-21T03:17:17.908Z,172.27
2023-04-21T03:19:45.572Z,170.73
2023-04-21T03:22:13.390Z,175.03
2023-04-21T03:24:42.443Z,177.53
2023-04-21T03:27:11.179Z,163.03
2023-04-21T03:29:38.961Z,164.30
2023-04-21T03:32:06.684Z,163.63
2023-04-21T03:34:34.435Z,168.03
2023-04-21T03:37:05.465Z,171.80
2023-04-21T03:39:33.105Z,170.13
2023-04-21T03:42:04.958Z,165.27
2023-04-21T03:44:32.612Z,166.23
2023-04-21T03:47:03.669Z,156.00
2023-04-21T03:49:31.643Z,156.73
2023-04-21T03:51:59.238Z,157.60
2023-04-21T03:54:27.112Z,159.10
2023-04-21T03:56:54.777Z,152.50
2023-04-21T03:59:23.817Z,158.67
2023-04-21T04:01:51.440Z,142.10
2023-04-21T04:04:19.260Z,150.83
2023-04-21T04:06:47.221Z,143.67
2023-04-21T04:09:14.828Z,134.47
2023-04-21T04:11:42.500Z,147.90
2023-04-21T04:14:10.721Z,145.70
2023-04-21T04:16:39.655Z,142.03
2023-04-21T04:19:07.294Z,135.83
2023-04-21T04:21:35.208Z,144.43
2023-04-21T04:24:05.700Z,146.47
2023-04-21T04:26:35.475Z,133.40
2023-04-21T04:29:03.953Z,136.93
2023-04-21T04:31:32.420Z,126.60
2023-04-21T04:34:01.846Z,135.50
2023-04-21T04:36:29.540Z,133.17
2023-04-21T04:38:58.390Z,131.93
2023-04-21T04:41:26.177Z,126.00
2023-04-21T04:43:54.323Z,134.80
2023-04-21T04:46:21.934Z,138.43
2023-04-21T04:48:49.583Z,128.50
2023-04-21T04:51:18.817Z,137.73
2023-04-21T04:53:46.408Z,136.37
2023-04-21T04:56:14.056Z,131.47
2023-04-21T04:58:41.786Z,129.17
2023-04-21T05:01:13.739Z,116.33
2023-04-21T05:03:41.621Z,123.23
2023-04-21T05:06:09.809Z,135.30
2023-04-21T05:08:40.092Z,123.47
2023-04-21T05:11:08.249Z,130.63
2023-04-21T05:13:38.225Z,128.80
2023-04-21T05:16:09.989Z,135.10
2023-04-21T05:18:37.976Z,132.53
2023-04-21T05:21:05.791Z,144.43
2023-04-21T05:23:33.586Z,134.50
2023-04-21T05:26:04.510Z,137.20
2023-04-21T05:28:32.754Z,134.77
2023-04-21T05:31:00.381Z,134.13
2023-04-21T05:33:27.999Z,141.63
2023-04-21T05:35:55.701Z,146.53
2023-04-21T05:38:23.473Z,141.57
2023-04-21T05:40:55.340Z,150.30
2023-04-21T05:43:24.387Z,155.87
2023-04-21T05:45:52.164Z,162.03
2023-04-21T05:48:19.984Z,152.60
2023-04-21T05:50:47.727Z,181.53
2023-04-21T05:53:15.448Z,175.97
2023-04-21T05:55:43.061Z,163.87
2023-04-21T05:58:10.808Z,173.73
2023-04-21T06:00:39.752Z,180.53
2023-04-21T06:03:07.630Z,183.07
2023-04-21T06:05:35.544Z,190.50
2023-04-21T06:08:03.239Z,201.07
2023-04-21T06:10:31.316Z,205.30
2023-04-21T06:12:58.909Z,205.27
2023-04-21T06:15:26.591Z,220.93
2023-04-21T06:17:55.946Z,241.50
2023-04-21T06:20:23.705Z,226.23
2023-04-21T06:22:51.531Z,224.10
2023-04-21T06:25:19.408Z,226.10
2023-04-21T06:27:47.928Z,223.03
2023-04-21T06:30:15.914Z,231.90
2023-04-21T06:32:45.783Z,223.67
2023-04-21T06:35:15.191Z,214.03
2023-04-21T06:37:43.042Z,228.97
2023-04-21T06:40:12.319Z,231.93
2023-04-21T06:42:39.985Z,222.27
2023-04-21T06:45:09.774Z,238.27
2023-04-21T06:47:37.493Z,223.37
2023-04-21T06:50:06.436Z,234.97
2023-04-21T06:52:35.720Z,235.90
2023-04-21T06:55:03.340Z,248.60
2023-04-21T06:57:30.960Z,216.67
2023-04-21T06:59:58.615Z,223.70
2023-04-21T07:02:26.306Z,232.93
2023-04-21T07:04:54.060Z,231.13
2023-04-21T07:07:21.768Z,210.50
2023-04-21T07:09:50.736Z,208.43
2023-04-21T07:12:18.405Z,216.10
2023-04-21T07:14:46.020Z,211.33
2023-04-21T07:17:13.801Z,216.47
2023-04-21T07:19:41.507Z,222.60
2023-04-21T07:22:09.142Z,231.87
2023-04-21T07:24:37.361Z,228.03
2023-04-21T07:27:06.453Z,235.37
2023-04-21T07:29:34.280Z,224.87
2023-04-21T07:32:01.948Z,211.20
2023-04-21T07:34:29.575Z,217.20
2023-04-21T07:36:57.376Z,217.37
2023-04-21T07:39:25.016Z,217.57
2023-04-21T07:41:53.853Z,235.57
2023-04-21T07:44:23.151Z,233.23
2023-04-21T07:46:50.865Z,237.63
2023-04-21T07:49:18.591Z,249.50
2023-04-21T07:51:46.314Z,242.27
2023-04-21T07:54:13.920Z,224.63
2023-04-21T07:56:41.559Z,216.13
2023-04-21T07:59:09.191Z,238.63
2023-04-21T08:01:38.227Z,234.57
2023-04-21T08:04:06.606Z,226.13
2023-04-21T08:06:34.566Z,225.83
2023-04-21T08:09:02.296Z,241.05
2023-04-21T08:11:29.944Z,227.98
2023-04-21T08:13:57.634Z,240.70
2023-04-21T08:16:25.478Z,251.05
2023-04-21T08:18:54.512Z,253.65
2023-04-21T08:21:22.144Z,253.45
2023-04-21T08:23:50.964Z,241.10
2023-04-21T08:26:18.901Z,243.82
2023-04-21T08:28:48.670Z,257.30
2023-04-21T08:31:16.490Z,245.02
2023-04-21T08:33:57.900Z,253.32
2023-04-21T08:36:30.702Z,257.65
2023-04-21T08:38:59.127Z,249.98
2023-04-21T08:41:27.632Z,242.60
2023-04-21T08:43:55.351Z,251.40
2023-04-21T08:46:24.274Z,274.85
2023-04-21T08:48:53.725Z,255.05
2023-04-21T08:51:24.646Z,264.73
2023-04-21T08:53:55.564Z,242.27
2023-04-21T08:56:25.723Z,254.40
2023-04-21T08:58:53.421Z,275.63
2023-04-21T09:01:21.203Z,264.08
2023-04-21T09:03:49.203Z,261.88
2023-04-21T09:06:17.235Z,288.17
2023-04-21T09:08:56.442Z,287.73
2023-04-21T09:11:24.381Z,293.05
2023-04-21T09:13:52.860Z,311.30
2023-04-21T09:16:22.750Z,288.17
2023-04-21T09:18:51.440Z,297.95
2023-04-21T09:21:20.702Z,312.17
2023-04-21T09:23:50.922Z,295.75
2023-04-21T09:26:22.715Z,323.50
2023-04-21T09:28:52.166Z,321.02
2023-04-21T09:31:21.643Z,313.70
2023-04-21T09:36:22.097Z,316.60
2023-04-21T09:41:34.064Z,306.73
2023-04-21T09:44:04.202Z,322.73
2023-04-21T09:46:35.216Z,320.15
2023-04-21T09:49:03.625Z,313.55
2023-04-21T09:54:28.349Z,314.77
2023-04-21T09:57:01.738Z,307.13
2023-04-21T09:59:31.630Z,315.08
2023-04-21T10:02:01.271Z,309.23
2023-04-21T10:04:32.354Z,295.90
2023-04-21T10:07:01.815Z,305.33
2023-04-21T10:09:36.114Z,308.70
2023-04-21T10:12:09.010Z,285.67
2023-04-21T10:14:37.271Z,297.90
2023-04-21T10:17:06.679Z,304.00
2023-04-21T10:19:39.548Z,301.83
2023-04-21T10:22:08.484Z,299.88
2023-04-21T10:24:39.172Z,305.77
2023-04-21T10:27:11.271Z,297.40
2023-04-21T10:29:52.465Z,298.98
2023-04-21T10:32:33.240Z,284.50
2023-04-21T10:35:01.659Z,282.83
2023-04-21T10:37:32.343Z,282.38
2023-04-21T10:40:00.216Z,254.48
2023-04-21T10:42:34.627Z,269.33
2023-04-21T10:45:08.462Z,261.23
2023-04-21T10:47:45.128Z,261.35
2023-04-21T10:50:15.449Z,243.45
2023-04-21T10:52:52.487Z,261.23
2023-04-21T10:55:20.702Z,249.95
2023-04-21T10:57:50.155Z,242.55
2023-04-21T11:00:20.590Z,233.18
2023-04-21T11:02:56.684Z,237.00
2023-04-21T11:05:34.603Z,259.25
2023-04-21T11:08:20.265Z,226.77
2023-04-21T11:10:51.830Z,225.15
2023-04-21T11:13:23.793Z,242.63
2023-04-21T11:15:59.280Z,239.75
2023-04-21T11:18:34.766Z,228.27
2023-04-21T11:21:11.448Z,231.43
2023-04-21T11:23:42.948Z,232.75
2023-04-21T11:26:10.598Z,230.23
2023-04-21T11:28:41.426Z,258.15
2023-04-21T11:31:09.160Z,224.27
2023-04-21T11:33:37.699Z,239.10
2023-04-21T11:36:06.969Z,263.83
2023-04-21T11:38:38.888Z,252.27
2023-04-21T11:41:07.098Z,247.85
2023-04-21T11:43:34.723Z,247.45
2023-04-21T11:46:19.090Z,239.27
2023-04-21T11:48:47.156Z,245.52
2023-04-21T11:51:16.369Z,245.93
2023-04-21T11:53:44.083Z,253.60
2023-04-21T11:56:12.714Z,247.63
2023-04-21T11:58:40.561Z,253.07
2023-04-21T12:01:09.041Z,246.27
2023-04-21T12:03:38.207Z,257.25
2023-04-21T12:06:07.436Z,251.50
2023-04-21T12:08:35.624Z,250.32
2023-04-21T12:11:03.909Z,262.13
2023-04-21T12:13:32.471Z,253.73
2023-04-21T12:16:03.869Z,244.48
2023-04-21T12:18:34.900Z,245.55
2023-04-21T12:21:05.425Z,237.82
2023-04-21T12:23:33.084Z,237.30
2023-04-21T12:26:01.326Z,228.95
2023-04-21T12:28:30.760Z,232.93
2023-04-21T12:30:58.442Z,246.18
2023-04-21T12:33:26.201Z,233.63
2023-04-21T12:35:53.909Z,220.48
2023-04-21T12:38:22.860Z,228.75
2023-04-21T12:40:50.472Z,231.38
2023-04-21T12:43:18.252Z,237.30
2023-04-21T12:45:46.000Z,243.50
2023-04-21T12:48:13.847Z,232.27
2023-04-21T12:50:41.537Z,226.75
2023-04-21T12:53:09.233Z,238.55
2023-04-21T12:55:38.476Z,227.30
2023-04-21T12:58:06.908Z,233.32
2023-04-21T13:00:36.024Z,243.70
2023-04-21T13:03:04.400Z,241.63
2023-04-21T13:05:32.540Z,248.35
2023-04-21T13:08:00.210Z,228.98
2023-04-21T13:10:27.823Z,231.68
2023-04-21T13:12:57.121Z,236.82
2023-04-21T13:15:25.020Z,228.20
2023-04-21T13:17:52.677Z,255.73
2023-04-21T13:20:20.552Z,229.27
2023-04-21T13:22:48.310Z,233.63
2023-04-21T13:25:16.407Z,233.45
2023-04-21T13:27:44.127Z,233.85
2023-04-21T13:30:15.305Z,202.98
2023-04-21T13:32:43.828Z,209.15
2023-04-21T13:35:11.785Z,219.75
2023-04-21T13:37:39.855Z,223.63
2023-04-21T13:40:10.928Z,210.75
2023-04-21T13:42:40.465Z,213.52
2023-04-21T13:45:09.152Z,214.32
2023-04-21T13:47:38.219Z,234.00
2023-04-21T13:50:07.007Z,213.68
2023-04-21T13:52:36.083Z,212.02
2023-04-21T13:55:05.126Z,231.07
2023-04-21T13:57:33.007Z,228.35
2023-04-21T14:00:00.766Z,211.43
2023-04-21T14:02:28.807Z,223.88
2023-04-21T14:04:58.224Z,231.32
2023-04-21T14:07:26.829Z,223.93
2023-04-21T14:09:54.551Z,223.05
2023-04-21T14:12:22.215Z,218.25
2023-04-21T14:14:49.864Z,219.40
2023-04-21T14:17:17.592Z,221.30
2023-04-21T14:19:45.176Z,224.18
2023-04-21T14:22:14.128Z,231.70
2023-04-21T14:24:41.804Z,224.00
2023-04-21T14:27:09.450Z,222.40
2023-04-21T14:29:37.508Z,211.60
2023-04-21T14:32:05.689Z,205.75
2023-04-21T14:34:33.416Z,205.23
2023-04-21T14:37:01.363Z,207.43
2023-04-21T14:39:30.436Z,213.82
2023-04-21T14:41:58.078Z,199.82
2023-04-21T14:44:25.778Z,211.88
2023-04-21T14:47:08.385Z,217.43
2023-04-21T14:49:38.142Z,217.65
2023-04-21T14:52:06.955Z,212.02
2023-04-21T14:54:36.041Z,209.10
2023-04-21T14:57:18.694Z,221.60
2023-04-21T14:59:48.452Z,214.85
2023-04-21T15:02:16.593Z,218.20
2023-04-21T15:04:44.503Z,206.55
2023-04-21T15:07:12.556Z,203.57
2023-04-21T15:09:45.528Z,215.70
2023-04-21T15:12:14.574Z,207.35
2023-04-21T15:14:42.429Z,214.27
2023-04-21T15:17:11.374Z,218.60
2023-04-21T15:19:39.210Z,213.48
2023-04-21T15:22:06.984Z,201.52
2023-04-21T15:24:34.688Z,204.65
2023-04-21T15:27:04.034Z,206.05
2023-04-21T15:29:31.672Z,202.85
2023-04-21T15:31:59.385Z,216.13
2023-04-21T15:34:26.994Z,220.73
2023-04-21T15:36:54.744Z,216.05
2023-04-21T15:39:22.404Z,207.30
2023-04-21T15:41:50.062Z,205.65
2023-04-21T15:44:19.068Z,199.75
2023-04-21T15:46:46.782Z,209.25
2023-04-21T15:49:14.540Z,195.30
2023-04-21T15:51:42.379Z,207.43
2023-04-21T15:54:10.501Z,208.10
2023-04-21T15:56:38.269Z,215.13
2023-04-21T15:59:06.564Z,189.55
2023-04-21T16:01:35.616Z,208.90
2023-04-21T16:04:03.510Z,204.27
2023-04-21T16:06:31.552Z,209.52
2023-04-21T16:08:59.340Z,207.13
2023-04-21T16:11:29.272Z,214.30
2023-04-21T16:13:57.137Z,198.45
2023-04-21T16:16:25.073Z,204.18
2023-04-21T16:18:54.125Z,204.70
2023-04-21T16:21:21.876Z,200.15
2023-04-21T16:23:49.763Z,200.20
2023-04-21T16:26:17.369Z,200.68
2023-04-21T16:28:45.522Z,191.32
2023-04-21T16:31:13.302Z,194.82
2023-04-21T16:33:41.096Z,197.70
2023-04-21T16:36:10.229Z,196.57
2023-04-21T16:38:37.902Z,177.43
2023-04-21T16:41:05.892Z,203.57
2023-04-21T16:43:33.619Z,199.00
2023-04-21T16:46:01.319Z,213.82
2023-04-21T16:48:29.085Z,192.23
2023-04-21T16:50:56.843Z,184.23
2023-04-21T16:53:26.562Z,173.63
2023-04-21T16:55:54.296Z,181.35
2023-04-21T16:58:24.207Z,171.00
2023-04-21T17:00:51.913Z,148.07
2023-04-21T17:03:19.841Z,166.07
2023-04-21T17:05:48.067Z,169.85
2023-04-21T17:08:15.787Z,165.93
2023-04-21T17:10:44.748Z,166.77
2023-04-21T17:13:12.453Z,161.73
2023-04-21T17:15:40.151Z,161.55
2023-04-21T17:18:07.889Z,163.60
2023-04-21T17:20:36.566Z,162.98
2023-04-21T17:23:04.168Z,167.57
2023-04-21T17:25:31.939Z,162.35
2023-04-21T17:28:01.060Z,164.65
2023-04-21T17:30:28.764Z,182.80
2023-04-21T17:33:08.386Z,188.82
2023-04-21T17:35:55.790Z,174.38
2023-04-21T17:38:29.614Z,182.50
2023-04-21T17:40:57.289Z,163.18
2023-04-21T17:43:26.322Z,173.23
2023-04-21T17:45:54.167Z,181.52
2023-04-21T17:48:22.012Z,182.65
2023-04-21T17:50:49.650Z,177.70
2023-04-21T17:53:17.352Z,175.30
2023-04-21T17:55:45.153Z,182.45
2023-04-21T17:58:12.969Z,180.10
2023-04-21T18:00:42.338Z,207.07
2023-04-21T18:03:10.208Z,202.45
2023-04-21T18:05:37.906Z,209.45
2023-04-21T18:08:05.716Z,219.63
2023-04-21T18:10:33.537Z,207.48
2023-04-21T18:13:01.180Z,208.70
2023-04-21T18:15:28.834Z,220.75
2023-04-21T18:17:57.918Z,217.88
2023-04-21T18:20:26.110Z,224.80
2023-04-21T18:22:54.351Z,220.63
2023-04-21T18:25:34.371Z,221.85
2023-04-21T18:28:10.922Z,233.68
2023-04-21T18:30:38.891Z,230.98
2023-04-21T18:33:08.043Z,245.52
2023-04-21T18:35:35.713Z,256.23
2023-04-21T18:38:03.452Z,264.95
2023-04-21T18:40:33.055Z,276.38
2023-04-21T18:43:01.337Z,264.35
2023-04-21T18:45:28.952Z,273.90
2023-04-21T18:47:56.658Z,283.33
2023-04-21T18:50:27.364Z,272.98
2023-04-21T18:52:55.169Z,274.70
2023-04-21T18:55:23.058Z,263.23
2023-04-21T18:57:50.750Z,244.80
2023-04-21T19:00:18.530Z,255.15
2023-04-21T19:02:48.616Z,241.05
2023-04-21T19:05:16.601Z,253.77
2023-04-21T19:07:46.010Z,260.92
2023-04-21T19:10:13.651Z,252.50
2023-04-21T19:12:41.590Z,251.45
2023-04-21T19:15:10.437Z,249.43
2023-04-21T19:17:38.257Z,239.68
2023-04-21T19:20:06.823Z,241.45
2023-04-21T19:22:36.081Z,236.55
2023-04-21T19:25:05.922Z,247.55
2023-04-21T19:27:33.913Z,251.30
2023-04-21T19:30:02.023Z,270.25
2023-04-21T19:32:30.177Z,264.25
2023-04-21T19:34:57.869Z,279.98
2023-04-21T19:37:27.046Z,280.60
2023-04-21T19:39:54.761Z,265.38
2023-04-21T19:42:24.166Z,261.42
2023-04-21T19:44:51.940Z,277.77
2023-04-21T19:47:19.687Z,276.02
2023-04-21T19:49:47.320Z,276.27
2023-04-21T19:52:15.141Z,283.10
2023-04-21T19:54:42.797Z,272.05
2023-04-21T19:57:10.407Z,265.38
2023-04-21T19:59:39.925Z,242.43
2023-04-21T20:02:08.332Z,261.38
2023-04-21T20:04:37.438Z,246.93
2023-04-21T20:07:05.193Z,239.70
2023-04-21T20:09:32.823Z,239.90
2023-04-21T20:12:01.455Z,248.35
2023-04-21T20:14:29.081Z,249.98
2023-04-21T20:16:58.342Z,248.82
2023-04-21T20:19:26.880Z,259.17
2023-04-21T20:21:54.508Z,245.55
2023-04-21T20:24:23.053Z,259.42
2023-04-21T20:26:50.666Z,275.05
2023-04-21T20:29:18.444Z,281.83
2023-04-21T20:31:46.490Z,271.08
2023-04-21T20:34:15.586Z,291.00
2023-04-21T20:36:43.445Z,282.95
2023-04-21T20:39:11.531Z,277.95
2023-04-21T20:41:39.216Z,293.95
2023-04-21T20:44:07.069Z,295.02
2023-04-21T20:46:34.778Z,291.20
2023-04-21T20:49:02.549Z,290.25
2023-04-21T20:51:32.626Z,299.98
2023-04-21T20:54:00.422Z,296.50
2023-04-21T20:56:28.151Z,270.27
2023-04-21T20:58:55.873Z,294.10
2023-04-21T21:01:24.130Z,302.42
2023-04-21T21:03:52.902Z,295.27
2023-04-21T21:06:21.558Z,296.88
2023-04-21T21:08:50.621Z,299.73
2023-04-21T21:11:18.368Z,302.92
2023-04-21T21:13:45.994Z,314.05
2023-04-21T21:16:14.462Z,308.60
2023-04-21T21:18:42.153Z,321.60
2023-04-21T21:21:10.374Z,321.75
2023-04-21T21:23:38.099Z,331.67
2023-04-21T21:26:07.576Z,319.92
2023-04-21T21:28:35.680Z,308.40
2023-04-21T21:31:03.621Z,330.38
2023-04-21T21:33:31.283Z,301.52
2023-04-21T21:35:58.950Z,306.23
2023-04-21T21:38:26.709Z,311.80
2023-04-21T21:40:54.338Z,328.55
2023-04-21T21:43:23.613Z,318.75
2023-04-21T21:45:51.391Z,305.92
2023-04-21T21:48:19.045Z,316.92
2023-04-21T21:50:46.723Z,321.50
2023-04-21T21:53:14.397Z,322.17
2023-04-21T21:55:42.109Z,314.92
2023-04-21T21:58:09.846Z,308.90
2023-04-21T22:00:39.622Z,317.95
2023-04-21T22:03:07.665Z,308.55
2023-04-21T22:05:35.920Z,310.27
2023-04-21T22:08:04.137Z,314.05
2023-04-21T22:10:31.798Z,320.42
2023-04-21T22:12:59.459Z,306.58
2023-04-21T22:15:27.075Z,308.48
2023-04-21T22:17:56.180Z,300.13
2023-04-21T22:20:24.982Z,294.00
2023-04-21T22:22:52.579Z,297.35
2023-04-21T22:25:26.658Z,326.10
2023-04-21T22:27:54.394Z,305.55
2023-04-21T22:30:22.124Z,317.88
2023-04-21T22:32:49.928Z,307.75
2023-04-21T22:35:19.086Z,314.02
2023-04-21T22:37:46.741Z,313.73
2023-04-21T22:40:14.584Z,298.95
2023-04-21T22:42:42.797Z,305.88
2023-04-21T22:45:11.260Z,316.23
2023-04-21T22:47:38.936Z,316.45
2023-04-21T22:50:09.100Z,312.40
2023-04-21T22:52:38.347Z,302.73
2023-04-21T22:55:06.651Z,296.20
2023-04-21T22:57:37.162Z,297.02
2023-04-21T23:00:06.016Z,303.45
2023-04-21T23:02:33.927Z,304.90
2023-04-21T23:05:01.763Z,313.75
2023-04-21T23:07:29.453Z,308.45
2023-04-21T23:09:58.395Z,309.25
2023-04-21T23:12:26.085Z,303.75
2023-04-21T23:14:53.802Z,294.52
2023-04-21T23:17:21.931Z,323.45
2023-04-21T23:19:49.548Z,292.00
2023-04-21T23:22:17.233Z,305.20
2023-04-21T23:24:44.890Z,304.40
2023-04-21T23:27:13.945Z,306.88
2023-04-21T23:29:41.635Z,293.85
2023-04-21T23:32:09.505Z,315.63
2023-04-21T23:34:37.220Z,319.52
2023-04-21T23:37:04.832Z,325.58
2023-04-21T23:39:32.875Z,307.88
2023-04-21T23:42:02.322Z,314.02
2023-04-21T23:44:31.300Z,310.27
2023-04-21T23:46:58.933Z,305.77
2023-04-21T23:49:26.590Z,314.05
2023-04-21T23:51:54.208Z,295.73
2023-04-21T23:54:21.879Z,307.17
2023-04-21T23:56:49.506Z,327.98
2023-04-21T23:59:17.583Z,321.38
